createdAt,value
2022-08-05T00:01:00.935Z,21.99
2022-08-05T00:03:46.683Z,21.90
2022-08-05T00:06:27.755Z,21.83
2022-08-05T00:08:59.131Z,21.76
2022-08-05T00:11:34.695Z,21.75
2022-08-05T00:14:02.375Z,21.70
2022-08-05T00:16:52.804Z,21.68
2022-08-05T00:19:22.147Z,21.56
2022-08-05T00:21:50.422Z,21.54
2022-08-05T00:24:24.260Z,21.52
2022-08-05T00:26:52.855Z,21.47
2022-08-05T00:29:22.779Z,21.47
2022-08-05T00:32:09.332Z,21.41
2022-08-05T00:34:55.635Z,21.32
2022-08-05T00:37:27.393Z,21.28
2022-08-05T00:40:13.630Z,21.25
2022-08-05T00:42:48.261Z,21.18
2022-08-05T00:45:16.622Z,21.16
2022-08-05T00:47:57.808Z,21.09
2022-08-05T00:50:32.415Z,21.07
2022-08-05T00:53:00.402Z,21.03
2022-08-05T00:55:42.081Z,20.98
2022-08-05T00:58:11.352Z,20.94
2022-08-05T01:00:39.128Z,20.98
2022-08-05T01:03:07.669Z,20.94
2022-08-05T01:05:35.202Z,20.89
2022-08-05T01:08:40.996Z,20.84
2022-08-05T01:10:54.733Z,20.72
2022-08-05T01:13:59.081Z,20.72
2022-08-05T01:16:26.202Z,20.64
2022-08-05T01:19:14.343Z,20.51
2022-08-05T01:22:23.847Z,20.44
2022-08-05T01:25:14.687Z,20.44
2022-08-05T01:28:13.934Z,20.42
2022-08-05T01:30:50.596Z,20.45
2022-08-05T01:33:25.176Z,20.41
2022-08-05T01:35:55.550Z,20.34
2022-08-05T01:40:59.663Z,20.36
2022-08-05T01:43:28.136Z,20.30
2022-08-05T01:45:56.797Z,20.33
2022-08-05T01:48:25.903Z,20.27
2022-08-05T01:50:55.381Z,20.20
2022-08-05T01:53:57.148Z,20.07
2022-08-05T01:56:13.747Z,19.88
2022-08-05T01:59:04.619Z,19.77
2022-08-05T02:01:39.882Z,19.67
2022-08-05T02:04:09.102Z,19.62
2022-08-05T02:06:38.776Z,19.53
2022-08-05T02:09:06.406Z,19.48
2022-08-05T02:11:42.499Z,19.41
2022-08-05T02:14:26.290Z,19.32
2022-08-05T02:16:59.246Z,19.26
2022-08-05T21:56:01.294Z,13.19
2022-08-05T21:58:16.408Z,13.13
2022-08-05T22:00:51.383Z,13.11
2022-08-05T22:03:18.310Z,13.03
2022-08-05T22:06:05.191Z,13.00
2022-08-05T22:08:32.438Z,12.98
2022-08-05T22:11:00.508Z,12.97
2022-08-05T22:14:05.803Z,12.94
2022-08-05T22:16:39.506Z,12.88
2022-08-05T22:19:01.011Z,12.84
2022-08-05T22:21:27.789Z,12.88
2022-08-05T22:24:01.969Z,12.83
2022-08-05T22:26:36.850Z,12.77
2022-08-05T22:29:03.596Z,12.75
2022-08-05T22:31:30.631Z,12.71
2022-08-05T22:34:01.611Z,12.72
2022-08-05T22:36:29.181Z,12.65
2022-08-05T22:38:55.966Z,12.62
2022-08-05T22:41:26.475Z,12.57
2022-08-05T22:44:12.295Z,12.54
2022-08-05T22:46:39.626Z,12.49
2022-08-05T22:49:07.848Z,12.43
2022-08-05T22:52:06.328Z,12.40
2022-08-05T22:54:26.303Z,12.38
2022-08-05T22:56:54.395Z,12.33
2022-08-05T22:59:44.273Z,12.31
2022-08-05T23:02:09.989Z,12.29
2022-08-05T23:04:37.076Z,12.26
2022-08-05T23:07:04.845Z,12.23
2022-08-05T23:09:58.399Z,12.21
2022-08-05T23:12:20.294Z,12.23
2022-08-05T23:14:52.038Z,12.22
2022-08-05T23:17:23.935Z,12.25
2022-08-05T23:19:56.133Z,12.27
2022-08-05T23:22:27.097Z,12.36
2022-08-05T23:24:54.778Z,12.37
2022-08-05T23:27:21.411Z,12.38
2022-08-05T23:29:50.604Z,12.41
2022-08-05T23:32:22.889Z,12.35
2022-08-05T23:34:50.836Z,12.22
2022-08-05T23:37:17.792Z,12.15
2022-08-05T23:39:54.629Z,12.01
2022-08-05T23:42:23.483Z,11.90
2022-08-05T23:44:56.660Z,11.82
2022-08-05T23:47:25.409Z,11.78
2022-08-05T23:49:56.326Z,11.71
2022-08-05T23:52:25.253Z,11.65
2022-08-05T23:54:52.858Z,11.63
2022-08-05T23:57:19.464Z,11.58
